sensor_id;sensor_type;location;lat;lon;timestamp;temperature;humidity
11112;DHT22;5609;49.466;8.468;2024-01-06T00:02:15;5.40;99.90
11112;DHT22;5609;49.466;8.468;2024-01-06T00:04:43;5.40;99.90
11112;DHT22;5609;49.466;8.468;2024-01-06T00:07:11;5.40;99.90
11112;DHT22;5609;49.466;8.468;2024-01-06T00:09:40;5.40;99.90
11112;DHT22;5609;49.466;8.468;2024-01-06T00:12:09;5.30;99.90
11112;DHT22;5609;49.466;8.468;2024-01-06T00:14:36;5.20;99.90
11112;DHT22;5609;49.466;8.468;2024-01-06T00:17:03;5.20;99.90
11112;DHT22;5609;49.466;8.468;2024-01-06T00:19:31;5.20;99.90
11112;DHT22;5609;49.466;8.468;2024-01-06T00:21:58;5.20;99.90
11112;DHT22;5609;49.466;8.468;2024-01-06T00:24:26;5.20;99.90
11112;DHT22;5609;49.466;8.468;2024-01-06T00:26:53;5.20;99.90
11112;DHT22;5609;49.466;8.468;2024-01-06T00:29:19;5.20;99.90
11112;DHT22;5609;49.466;8.468;2024-01-06T00:31:46;5.20;99.90
11112;DHT22;5609;49.466;8.468;2024-01-06T00:34:13;5.20;99.90
11112;DHT22;5609;49.466;8.468;2024-01-06T00:36:41;5.20;99.90
11112;DHT22;5609;49.466;8.468;2024-01-06T00:39:08;5.20;99.90
11112;DHT22;5609;49.466;8.468;2024-01-06T00:41:34;5.20;99.90
11112;DHT22;5609;49.466;8.468;2024-01-06T00:44:01;5.20;99.90
11112;DHT22;5609;49.466;8.468;2024-01-06T00:46:29;5.20;99.90
11112;DHT22;5609;49.466;8.468;2024-01-06T00:48:57;5.20;99.90
11112;DHT22;5609;49.466;8.468;2024-01-06T00:51:24;5.10;99.90
11112;DHT22;5609;49.466;8.468;2024-01-06T00:53:52;5.10;99.90
11112;DHT22;5609;49.466;8.468;2024-01-06T00:56:19;5.10;99.90
11112;DHT22;5609;49.466;8.468;2024-01-06T00:58:46;5.30;99.90
11112;DHT22;5609;49.466;8.468;2024-01-06T01:01:12;5.20;99.90
11112;DHT22;5609;49.466;8.468;2024-01-06T01:03:39;5.20;99.90
11112;DHT22;5609;49.466;8.468;2024-01-06T01:06:06;5.20;99.90
11112;DHT22;5609;49.466;8.468;2024-01-06T01:08:33;5.20;99.90
11112;DHT22;5609;49.466;8.468;2024-01-06T01:11:02;5.20;99.90
11112;DHT22;5609;49.466;8.468;2024-01-06T01:13:30;5.20;99.90
11112;DHT22;5609;49.466;8.468;2024-01-06T01:15:57;5.20;99.90
11112;DHT22;5609;49.466;8.468;2024-01-06T01:18:23;5.10;99.90
11112;DHT22;5609;49.466;8.468;2024-01-06T01:20:50;5.10;99.90
11112;DHT22;5609;49.466;8.468;2024-01-06T01:23:17;5.10;99.90
11112;DHT22;5609;49.466;8.468;2024-01-06T01:25:44;5.10;99.90
11112;DHT22;5609;49.466;8.468;2024-01-06T01:28:13;5.10;99.90
11112;DHT22;5609;49.466;8.468;2024-01-06T01:30:39;5.20;99.90
11112;DHT22;5609;49.466;8.468;2024-01-06T01:33:06;5.50;99.90
11112;DHT22;5609;49.466;8.468;2024-01-06T01:35:33;5.50;99.90
11112;DHT22;5609;49.466;8.468;2024-01-06T01:38:02;5.60;99.90
11112;DHT22;5609;49.466;8.468;2024-01-06T01:40:29;5.50;99.90
11112;DHT22;5609;49.466;8.468;2024-01-06T01:42:56;5.50;99.90
11112;DHT22;5609;49.466;8.468;2024-01-06T01:45:24;5.60;99.90
11112;DHT22;5609;49.466;8.468;2024-01-06T01:47:51;5.60;99.90
11112;DHT22;5609;49.466;8.468;2024-01-06T01:50:17;5.50;99.90
11112;DHT22;5609;49.466;8.468;2024-01-06T01:52:46;5.50;99.90
11112;DHT22;5609;49.466;8.468;2024-01-06T01:55:13;5.50;99.90
11112;DHT22;5609;49.466;8.468;2024-01-06T01:57:41;5.50;99.90
11112;DHT22;5609;49.466;8.468;2024-01-06T02:00:09;5.50;99.90
11112;DHT22;5609;49.466;8.468;2024-01-06T02:02:37;5.50;99.90
11112;DHT22;5609;49.466;8.468;2024-01-06T02:05:05;5.50;99.90
11112;DHT22;5609;49.466;8.468;2024-01-06T02:07:32;5.50;99.90
11112;DHT22;5609;49.466;8.468;2024-01-06T02:09:59;5.50;99.90
11112;DHT22;5609;49.466;8.468;2024-01-06T02:12:25;5.50;99.90
11112;DHT22;5609;49.466;8.468;2024-01-06T02:14:52;5.40;99.90
11112;DHT22;5609;49.466;8.468;2024-01-06T02:17:18;5.50;99.90
11112;DHT22;5609;49.466;8.468;2024-01-06T02:19:46;5.50;99.90
11112;DHT22;5609;49.466;8.468;2024-01-06T02:22:14;5.60;99.90
11112;DHT22;5609;49.466;8.468;2024-01-06T02:24:41;5.70;99.90
11112;DHT22;5609;49.466;8.468;2024-01-06T02:27:08;5.80;99.90
11112;DHT22;5609;49.466;8.468;2024-01-06T02:29:34;5.70;99.90
11112;DHT22;5609;49.466;8.468;2024-01-06T02:32:03;5.70;99.90
11112;DHT22;5609;49.466;8.468;2024-01-06T02:34:29;5.80;99.90
11112;DHT22;5609;49.466;8.468;2024-01-06T02:36:58;5.80;99.90
11112;DHT22;5609;49.466;8.468;2024-01-06T02:39:26;5.90;99.90
11112;DHT22;5609;49.466;8.468;2024-01-06T02:41:52;5.90;99.90
11112;DHT22;5609;49.466;8.468;2024-01-06T02:44:19;6.00;99.90
11112;DHT22;5609;49.466;8.468;2024-01-06T02:46:46;6.00;99.90
11112;DHT22;5609;49.466;8.468;2024-01-06T02:49:12;6.00;99.90
11112;DHT22;5609;49.466;8.468;2024-01-06T02:51:39;6.00;99.90
11112;DHT22;5609;49.466;8.468;2024-01-06T02:54:06;6.00;99.90
11112;DHT22;5609;49.466;8.468;2024-01-06T02:56:34;6.10;99.90
11112;DHT22;5609;49.466;8.468;2024-01-06T02:59:01;6.00;99.90
11112;DHT22;5609;49.466;8.468;2024-01-06T03:01:27;6.00;99.90
11112;DHT22;5609;49.466;8.468;2024-01-06T03:03:54;5.90;99.90
11112;DHT22;5609;49.466;8.468;2024-01-06T03:06:21;5.90;99.90
11112;DHT22;5609;49.466;8.468;2024-01-06T03:08:48;5.90;99.90
11112;DHT22;5609;49.466;8.468;2024-01-06T03:11:15;6.00;99.90
11112;DHT22;5609;49.466;8.468;2024-01-06T03:13:43;6.00;99.90
11112;DHT22;5609;49.466;8.468;2024-01-06T03:16:11;6.00;99.90
11112;DHT22;5609;49.466;8.468;2024-01-06T03:18:38;6.00;99.90
11112;DHT22;5609;49.466;8.468;2024-01-06T03:21:05;5.90;99.90
11112;DHT22;5609;49.466;8.468;2024-01-06T03:23:31;6.00;99.90
11112;DHT22;5609;49.466;8.468;2024-01-06T03:25:58;6.00;99.90
11112;DHT22;5609;49.466;8.468;2024-01-06T03:28:25;5.90;99.90
11112;DHT22;5609;49.466;8.468;2024-01-06T03:30:53;6.00;99.90
11112;DHT22;5609;49.466;8.468;2024-01-06T03:33:20;6.00;99.90
11112;DHT22;5609;49.466;8.468;2024-01-06T03:35:47;6.10;99.90
11112;DHT22;5609;49.466;8.468;2024-01-06T03:38:13;6.10;99.90
11112;DHT22;5609;49.466;8.468;2024-01-06T03:40:40;6.10;99.90
11112;DHT22;5609;49.466;8.468;2024-01-06T03:43:07;6.10;99.90
11112;DHT22;5609;49.466;8.468;2024-01-06T03:45:34;6.10;99.90
11112;DHT22;5609;49.466;8.468;2024-01-06T03:48:03;6.10;99.90
11112;DHT22;5609;49.466;8.468;2024-01-06T03:50:31;6.10;99.90
11112;DHT22;5609;49.466;8.468;2024-01-06T03:53:00;6.10;99.90
11112;DHT22;5609;49.466;8.468;2024-01-06T03:55:27;6.20;99.90
11112;DHT22;5609;49.466;8.468;2024-01-06T03:57:55;6.20;99.90
11112;DHT22;5609;49.466;8.468;2024-01-06T04:00:23;6.20;99.90
11112;DHT22;5609;49.466;8.468;2024-01-06T04:02:51;6.20;99.90
11112;DHT22;5609;49.466;8.468;2024-01-06T04:05:22;6.10;99.90
11112;DHT22;5609;49.466;8.468;2024-01-06T04:07:50;6.20;99.90
11112;DHT22;5609;49.466;8.468;2024-01-06T04:10:19;6.10;99.90
11112;DHT22;5609;49.466;8.468;2024-01-06T04:12:47;6.00;99.90
11112;DHT22;5609;49.466;8.468;2024-01-06T04:15:14;6.00;99.90
11112;DHT22;5609;49.466;8.468;2024-01-06T04:17:41;6.00;99.90
11112;DHT22;5609;49.466;8.468;2024-01-06T04:20:09;6.00;99.90
11112;DHT22;5609;49.466;8.468;2024-01-06T04:22:39;6.00;99.90
11112;DHT22;5609;49.466;8.468;2024-01-06T04:25:07;5.90;99.90
11112;DHT22;5609;49.466;8.468;2024-01-06T04:27:34;5.90;99.90
11112;DHT22;5609;49.466;8.468;2024-01-06T04:30:01;5.90;99.90
11112;DHT22;5609;49.466;8.468;2024-01-06T04:32:28;5.90;99.90
11112;DHT22;5609;49.466;8.468;2024-01-06T04:34:54;5.90;99.90
11112;DHT22;5609;49.466;8.468;2024-01-06T04:37:22;5.90;99.90
11112;DHT22;5609;49.466;8.468;2024-01-06T04:39:51;5.90;99.90
11112;DHT22;5609;49.466;8.468;2024-01-06T04:42:17;6.00;99.90
11112;DHT22;5609;49.466;8.468;2024-01-06T04:44:45;6.00;99.90
11112;DHT22;5609;49.466;8.468;2024-01-06T04:47:11;6.00;99.90
11112;DHT22;5609;49.466;8.468;2024-01-06T04:49:38;6.10;99.90
11112;DHT22;5609;49.466;8.468;2024-01-06T04:52:05;6.20;99.90
11112;DHT22;5609;49.466;8.468;2024-01-06T04:54:32;6.10;99.90
11112;DHT22;5609;49.466;8.468;2024-01-06T04:57:00;6.10;99.90
11112;DHT22;5609;49.466;8.468;2024-01-06T04:59:29;6.10;99.90
11112;DHT22;5609;49.466;8.468;2024-01-06T05:01:57;6.10;99.90
11112;DHT22;5609;49.466;8.468;2024-01-06T05:04:25;6.00;99.90
11112;DHT22;5609;49.466;8.468;2024-01-06T05:06:51;6.00;99.90
11112;DHT22;5609;49.466;8.468;2024-01-06T05:09:18;6.10;99.90
11112;DHT22;5609;49.466;8.468;2024-01-06T05:11:45;6.10;99.90
11112;DHT22;5609;49.466;8.468;2024-01-06T05:14:13;6.10;99.90
11112;DHT22;5609;49.466;8.468;2024-01-06T05:16:40;6.10;99.90
11112;DHT22;5609;49.466;8.468;2024-01-06T05:19:09;6.00;99.90
11112;DHT22;5609;49.466;8.468;2024-01-06T05:21:35;6.00;99.90
11112;DHT22;5609;49.466;8.468;2024-01-06T05:24:02;6.00;99.90
11112;DHT22;5609;49.466;8.468;2024-01-06T05:26:30;6.00;99.90
11112;DHT22;5609;49.466;8.468;2024-01-06T05:28:57;5.90;99.90
11112;DHT22;5609;49.466;8.468;2024-01-06T05:31:27;5.90;99.90
11112;DHT22;5609;49.466;8.468;2024-01-06T05:33:54;5.90;99.90
11112;DHT22;5609;49.466;8.468;2024-01-06T05:36:21;5.90;99.90
11112;DHT22;5609;49.466;8.468;2024-01-06T05:38:47;5.90;99.90
11112;DHT22;5609;49.466;8.468;2024-01-06T05:41:14;5.90;99.90
11112;DHT22;5609;49.466;8.468;2024-01-06T05:43:41;5.90;99.90
11112;DHT22;5609;49.466;8.468;2024-01-06T05:46:07;5.80;99.90
11112;DHT22;5609;49.466;8.468;2024-01-06T05:48:37;5.90;99.90
11112;DHT22;5609;49.466;8.468;2024-01-06T05:51:06;5.90;99.90
11112;DHT22;5609;49.466;8.468;2024-01-06T05:53:32;5.80;99.90
11112;DHT22;5609;49.466;8.468;2024-01-06T05:55:59;5.90;99.90
11112;DHT22;5609;49.466;8.468;2024-01-06T05:58:26;5.90;99.90
11112;DHT22;5609;49.466;8.468;2024-01-06T06:00:52;5.80;99.90
11112;DHT22;5609;49.466;8.468;2024-01-06T06:03:19;5.80;99.90
11112;DHT22;5609;49.466;8.468;2024-01-06T06:05:47;5.80;99.90
11112;DHT22;5609;49.466;8.468;2024-01-06T06:08:14;5.80;99.90
11112;DHT22;5609;49.466;8.468;2024-01-06T06:10:40;5.70;99.90
11112;DHT22;5609;49.466;8.468;2024-01-06T06:13:25;5.80;99.90
11112;DHT22;5609;49.466;8.468;2024-01-06T06:15:51;5.80;99.90
11112;DHT22;5609;49.466;8.468;2024-01-06T06:18:18;5.80;99.90
11112;DHT22;5609;49.466;8.468;2024-01-06T06:20:47;5.80;99.90
11112;DHT22;5609;49.466;8.468;2024-01-06T06:23:13;5.80;99.90
11112;DHT22;5609;49.466;8.468;2024-01-06T06:25:40;5.90;99.90
11112;DHT22;5609;49.466;8.468;2024-01-06T06:28:06;5.90;99.90
11112;DHT22;5609;49.466;8.468;2024-01-06T06:30:33;5.90;99.90
11112;DHT22;5609;49.466;8.468;2024-01-06T06:33:00;5.90;99.90
11112;DHT22;5609;49.466;8.468;2024-01-06T06:35:26;6.00;99.90
11112;DHT22;5609;49.466;8.468;2024-01-06T06:37:54;6.00;99.90
11112;DHT22;5609;49.466;8.468;2024-01-06T06:40:21;6.10;99.90
11112;DHT22;5609;49.466;8.468;2024-01-06T06:42:47;6.10;99.90
11112;DHT22;5609;49.466;8.468;2024-01-06T06:45:14;6.10;99.90
11112;DHT22;5609;49.466;8.468;2024-01-06T06:47:41;6.20;99.90
11112;DHT22;5609;49.466;8.468;2024-01-06T06:50:08;6.20;99.90
11112;DHT22;5609;49.466;8.468;2024-01-06T06:52:35;6.30;99.90
11112;DHT22;5609;49.466;8.468;2024-01-06T06:55:03;6.30;99.90
11112;DHT22;5609;49.466;8.468;2024-01-06T06:57:30;6.30;99.90
11112;DHT22;5609;49.466;8.468;2024-01-06T06:59:57;6.30;99.90
11112;DHT22;5609;49.466;8.468;2024-01-06T07:02:25;6.20;99.90
11112;DHT22;5609;49.466;8.468;2024-01-06T07:04:51;6.20;99.90
11112;DHT22;5609;49.466;8.468;2024-01-06T07:07:19;6.20;99.90
11112;DHT22;5609;49.466;8.468;2024-01-06T07:09:45;6.20;99.90
11112;DHT22;5609;49.466;8.468;2024-01-06T07:12:13;6.20;99.90
11112;DHT22;5609;49.466;8.468;2024-01-06T07:14:42;6.20;99.90
11112;DHT22;5609;49.466;8.468;2024-01-06T07:17:08;6.20;99.90
11112;DHT22;5609;49.466;8.468;2024-01-06T07:19:36;6.30;99.90
11112;DHT22;5609;49.466;8.468;2024-01-06T07:22:03;6.30;99.90
11112;DHT22;5609;49.466;8.468;2024-01-06T07:24:30;6.30;99.90
11112;DHT22;5609;49.466;8.468;2024-01-06T07:26:57;6.20;99.90
11112;DHT22;5609;49.466;8.468;2024-01-06T07:29:25;6.20;99.90
11112;DHT22;5609;49.466;8.468;2024-01-06T07:31:52;6.20;99.90
11112;DHT22;5609;49.466;8.468;2024-01-06T07:34:19;6.30;99.90
11112;DHT22;5609;49.466;8.468;2024-01-06T07:36:46;6.30;99.90
11112;DHT22;5609;49.466;8.468;2024-01-06T07:39:12;6.30;99.90
11112;DHT22;5609;49.466;8.468;2024-01-06T07:41:41;6.30;99.90
11112;DHT22;5609;49.466;8.468;2024-01-06T07:44:08;6.30;99.90
11112;DHT22;5609;49.466;8.468;2024-01-06T07:46:36;6.20;99.90
11112;DHT22;5609;49.466;8.468;2024-01-06T07:49:04;6.30;99.90
11112;DHT22;5609;49.466;8.468;2024-01-06T07:51:31;6.30;99.90
11112;DHT22;5609;49.466;8.468;2024-01-06T07:53:59;6.30;99.90
11112;DHT22;5609;49.466;8.468;2024-01-06T07:56:26;6.20;99.90
11112;DHT22;5609;49.466;8.468;2024-01-06T07:58:53;6.30;99.90
11112;DHT22;5609;49.466;8.468;2024-01-06T08:01:21;6.20;99.90
11112;DHT22;5609;49.466;8.468;2024-01-06T08:03:50;6.20;99.90
11112;DHT22;5609;49.466;8.468;2024-01-06T08:06:19;6.20;99.90
11112;DHT22;5609;49.466;8.468;2024-01-06T08:08:48;6.20;99.90
11112;DHT22;5609;49.466;8.468;2024-01-06T08:11:15;6.20;99.90
11112;DHT22;5609;49.466;8.468;2024-01-06T08:13:41;6.20;99.90
11112;DHT22;5609;49.466;8.468;2024-01-06T08:16:09;6.10;99.90
11112;DHT22;5609;49.466;8.468;2024-01-06T08:18:37;6.20;99.90
11112;DHT22;5609;49.466;8.468;2024-01-06T08:21:06;6.20;99.90
11112;DHT22;5609;49.466;8.468;2024-01-06T08:23:32;6.30;99.90
11112;DHT22;5609;49.466;8.468;2024-01-06T08:25:59;6.30;99.90
11112;DHT22;5609;49.466;8.468;2024-01-06T08:28:26;6.40;99.90
11112;DHT22;5609;49.466;8.468;2024-01-06T08:30:53;6.40;99.90
11112;DHT22;5609;49.466;8.468;2024-01-06T08:33:20;6.60;99.90
11112;DHT22;5609;49.466;8.468;2024-01-06T08:35:46;6.80;99.90
11112;DHT22;5609;49.466;8.468;2024-01-06T08:38:15;7.00;99.90
11112;DHT22;5609;49.466;8.468;2024-01-06T08:40:42;7.20;99.90
11112;DHT22;5609;49.466;8.468;2024-01-06T08:43:10;7.30;99.90
11112;DHT22;5609;49.466;8.468;2024-01-06T08:45:37;7.60;99.90
11112;DHT22;5609;49.466;8.468;2024-01-06T08:48:04;7.70;99.90
11112;DHT22;5609;49.466;8.468;2024-01-06T08:50:31;7.80;99.90
11112;DHT22;5609;49.466;8.468;2024-01-06T08:52:58;7.70;99.90
11112;DHT22;5609;49.466;8.468;2024-01-06T08:55:25;7.70;99.90
11112;DHT22;5609;49.466;8.468;2024-01-06T08:57:54;7.60;99.90
11112;DHT22;5609;49.466;8.468;2024-01-06T09:00:21;7.70;99.90
11112;DHT22;5609;49.466;8.468;2024-01-06T09:02:48;7.60;99.90
11112;DHT22;5609;49.466;8.468;2024-01-06T09:05:15;7.60;99.90
11112;DHT22;5609;49.466;8.468;2024-01-06T09:07:41;7.60;99.90
11112;DHT22;5609;49.466;8.468;2024-01-06T09:10:10;7.60;99.90
11112;DHT22;5609;49.466;8.468;2024-01-06T09:12:38;7.80;99.90
11112;DHT22;5609;49.466;8.468;2024-01-06T09:15:08;7.80;99.90
11112;DHT22;5609;49.466;8.468;2024-01-06T09:17:35;7.80;99.90
11112;DHT22;5609;49.466;8.468;2024-01-06T09:20:02;7.80;99.90
11112;DHT22;5609;49.466;8.468;2024-01-06T09:22:29;7.70;99.90
11112;DHT22;5609;49.466;8.468;2024-01-06T09:24:57;7.70;99.90
11112;DHT22;5609;49.466;8.468;2024-01-06T09:27:24;7.60;99.90
11112;DHT22;5609;49.466;8.468;2024-01-06T09:29:53;7.40;99.90
11112;DHT22;5609;49.466;8.468;2024-01-06T09:32:20;7.60;99.90
11112;DHT22;5609;49.466;8.468;2024-01-06T09:34:49;7.60;99.90
11112;DHT22;5609;49.466;8.468;2024-01-06T09:37:16;7.70;99.90
11112;DHT22;5609;49.466;8.468;2024-01-06T09:39:43;7.70;99.90
11112;DHT22;5609;49.466;8.468;2024-01-06T09:42:10;7.80;99.90
11112;DHT22;5609;49.466;8.468;2024-01-06T09:44:37;7.80;99.90
11112;DHT22;5609;49.466;8.468;2024-01-06T09:47:06;7.80;99.90
11112;DHT22;5609;49.466;8.468;2024-01-06T09:49:34;7.70;99.90
11112;DHT22;5609;49.466;8.468;2024-01-06T09:52:08;7.70;99.90
11112;DHT22;5609;49.466;8.468;2024-01-06T09:54:43;7.80;99.90
11112;DHT22;5609;49.466;8.468;2024-01-06T09:57:12;7.90;99.90
11112;DHT22;5609;49.466;8.468;2024-01-06T09:59:44;7.80;99.90
11112;DHT22;5609;49.466;8.468;2024-01-06T10:02:14;7.90;99.90
11112;DHT22;5609;49.466;8.468;2024-01-06T10:04:41;8.00;99.90
11112;DHT22;5609;49.466;8.468;2024-01-06T10:07:11;8.10;99.90
11112;DHT22;5609;49.466;8.468;2024-01-06T10:09:41;8.30;99.90
11112;DHT22;5609;49.466;8.468;2024-01-06T10:12:08;8.20;99.90
11112;DHT22;5609;49.466;8.468;2024-01-06T10:14:35;8.30;99.90
11112;DHT22;5609;49.466;8.468;2024-01-06T10:17:07;8.40;99.90
11112;DHT22;5609;49.466;8.468;2024-01-06T10:19:36;8.50;99.90
11112;DHT22;5609;49.466;8.468;2024-01-06T10:22:05;8.60;99.90
11112;DHT22;5609;49.466;8.468;2024-01-06T10:24:32;8.70;99.90
11112;DHT22;5609;49.466;8.468;2024-01-06T10:26:59;8.80;99.90
11112;DHT22;5609;49.466;8.468;2024-01-06T10:29:26;8.90;99.90
11112;DHT22;5609;49.466;8.468;2024-01-06T10:31:54;8.80;99.90
11112;DHT22;5609;49.466;8.468;2024-01-06T10:34:21;8.90;99.90
11112;DHT22;5609;49.466;8.468;2024-01-06T10:36:50;9.00;99.90
11112;DHT22;5609;49.466;8.468;2024-01-06T10:39:17;8.90;99.90
11112;DHT22;5609;49.466;8.468;2024-01-06T10:41:45;8.70;99.90
11112;DHT22;5609;49.466;8.468;2024-01-06T10:44:13;8.70;99.90
11112;DHT22;5609;49.466;8.468;2024-01-06T10:46:41;8.70;99.90
11112;DHT22;5609;49.466;8.468;2024-01-06T10:49:09;8.70;99.90
11112;DHT22;5609;49.466;8.468;2024-01-06T10:51:38;8.70;99.90
11112;DHT22;5609;49.466;8.468;2024-01-06T10:54:09;8.70;99.90
11112;DHT22;5609;49.466;8.468;2024-01-06T10:56:39;8.90;99.90
11112;DHT22;5609;49.466;8.468;2024-01-06T10:59:08;9.00;99.90
11112;DHT22;5609;49.466;8.468;2024-01-06T11:01:39;8.90;99.90
11112;DHT22;5609;49.466;8.468;2024-01-06T11:04:06;8.90;99.90
11112;DHT22;5609;49.466;8.468;2024-01-06T11:06:35;8.80;99.90
11112;DHT22;5609;49.466;8.468;2024-01-06T11:09:11;8.70;99.90
11112;DHT22;5609;49.466;8.468;2024-01-06T11:11:39;8.70;99.90
11112;DHT22;5609;49.466;8.468;2024-01-06T11:14:21;8.70;99.90
11112;DHT22;5609;49.466;8.468;2024-01-06T11:16:48;8.70;99.90
11112;DHT22;5609;49.466;8.468;2024-01-06T11:19:43;8.70;99.90
11112;DHT22;5609;49.466;8.468;2024-01-06T11:22:25;8.70;99.90
11112;DHT22;5609;49.466;8.468;2024-01-06T11:24:56;8.70;99.90
11112;DHT22;5609;49.466;8.468;2024-01-06T11:27:25;8.70;99.90
11112;DHT22;5609;49.466;8.468;2024-01-06T11:29:54;8.60;99.90
11112;DHT22;5609;49.466;8.468;2024-01-06T11:32:27;8.60;99.90
11112;DHT22;5609;49.466;8.468;2024-01-06T11:34:55;8.70;99.90
11112;DHT22;5609;49.466;8.468;2024-01-06T11:37:25;8.60;99.90
11112;DHT22;5609;49.466;8.468;2024-01-06T11:39:52;8.70;99.90
11112;DHT22;5609;49.466;8.468;2024-01-06T11:42:21;8.70;99.90
11112;DHT22;5609;49.466;8.468;2024-01-06T11:44:51;8.90;99.90
11112;DHT22;5609;49.466;8.468;2024-01-06T11:47:18;8.90;99.90
11112;DHT22;5609;49.466;8.468;2024-01-06T11:49:54;8.90;99.90
11112;DHT22;5609;49.466;8.468;2024-01-06T11:52:24;8.90;99.90
11112;DHT22;5609;49.466;8.468;2024-01-06T11:54:52;8.90;99.90
11112;DHT22;5609;49.466;8.468;2024-01-06T11:57:21;8.80;99.90
11112;DHT22;5609;49.466;8.468;2024-01-06T11:59:50;8.80;99.90
11112;DHT22;5609;49.466;8.468;2024-01-06T12:02:17;8.80;99.90
11112;DHT22;5609;49.466;8.468;2024-01-06T12:04:48;8.70;99.90
11112;DHT22;5609;49.466;8.468;2024-01-06T12:07:16;8.70;99.90
11112;DHT22;5609;49.466;8.468;2024-01-06T12:09:43;8.60;99.90
11112;DHT22;5609;49.466;8.468;2024-01-06T12:12:10;8.60;99.90
11112;DHT22;5609;49.466;8.468;2024-01-06T12:14:41;8.50;99.90
11112;DHT22;5609;49.466;8.468;2024-01-06T12:17:08;8.40;99.90
11112;DHT22;5609;49.466;8.468;2024-01-06T12:19:35;8.30;99.90
11112;DHT22;5609;49.466;8.468;2024-01-06T12:22:03;8.40;99.90
11112;DHT22;5609;49.466;8.468;2024-01-06T12:24:31;8.40;99.90
11112;DHT22;5609;49.466;8.468;2024-01-06T12:26:59;8.40;99.90
11112;DHT22;5609;49.466;8.468;2024-01-06T12:29:28;8.40;99.90
11112;DHT22;5609;49.466;8.468;2024-01-06T12:31:59;8.40;99.90
11112;DHT22;5609;49.466;8.468;2024-01-06T12:34:26;8.30;99.90
11112;DHT22;5609;49.466;8.468;2024-01-06T12:36:54;8.30;99.90
11112;DHT22;5609;49.466;8.468;2024-01-06T12:39:21;8.20;99.90
11112;DHT22;5609;49.466;8.468;2024-01-06T12:41:50;8.10;99.90
11112;DHT22;5609;49.466;8.468;2024-01-06T12:44:17;8.10;99.90
11112;DHT22;5609;49.466;8.468;2024-01-06T12:46:44;8.00;99.90
11112;DHT22;5609;49.466;8.468;2024-01-06T12:49:12;8.10;99.90
11112;DHT22;5609;49.466;8.468;2024-01-06T12:51:39;8.00;99.90
11112;DHT22;5609;49.466;8.468;2024-01-06T12:54:06;8.00;99.90
11112;DHT22;5609;49.466;8.468;2024-01-06T12:56:32;8.00;99.90
11112;DHT22;5609;49.466;8.468;2024-01-06T12:58:59;8.00;99.90
11112;DHT22;5609;49.466;8.468;2024-01-06T13:01:26;8.00;99.90
11112;DHT22;5609;49.466;8.468;2024-01-06T13:03:53;8.10;99.90
11112;DHT22;5609;49.466;8.468;2024-01-06T13:06:21;8.10;99.90
11112;DHT22;5609;49.466;8.468;2024-01-06T13:08:48;8.10;99.90
11112;DHT22;5609;49.466;8.468;2024-01-06T13:11:15;8.00;99.90
11112;DHT22;5609;49.466;8.468;2024-01-06T13:13:42;8.00;99.90
11112;DHT22;5609;49.466;8.468;2024-01-06T13:16:08;8.00;99.90
11112;DHT22;5609;49.466;8.468;2024-01-06T13:18:35;8.00;99.90
11112;DHT22;5609;49.466;8.468;2024-01-06T13:21:02;8.00;99.90
11112;DHT22;5609;49.466;8.468;2024-01-06T13:23:30;7.90;99.90
11112;DHT22;5609;49.466;8.468;2024-01-06T13:25:56;7.90;99.90
11112;DHT22;5609;49.466;8.468;2024-01-06T13:28:23;7.90;99.90
11112;DHT22;5609;49.466;8.468;2024-01-06T13:30:50;7.90;99.90
11112;DHT22;5609;49.466;8.468;2024-01-06T13:33:17;8.00;99.90
11112;DHT22;5609;49.466;8.468;2024-01-06T13:35:44;8.00;99.90
11112;DHT22;5609;49.466;8.468;2024-01-06T13:38:10;8.00;99.90
11112;DHT22;5609;49.466;8.468;2024-01-06T13:40:39;8.00;99.90
11112;DHT22;5609;49.466;8.468;2024-01-06T13:43:07;8.00;99.90
11112;DHT22;5609;49.466;8.468;2024-01-06T13:45:41;8.10;99.90
11112;DHT22;5609;49.466;8.468;2024-01-06T13:48:08;8.10;99.90
11112;DHT22;5609;49.466;8.468;2024-01-06T13:50:36;8.10;99.90
11112;DHT22;5609;49.466;8.468;2024-01-06T13:53:03;8.10;99.90
11112;DHT22;5609;49.466;8.468;2024-01-06T13:55:32;8.10;99.90
11112;DHT22;5609;49.466;8.468;2024-01-06T13:58:01;8.10;99.90
11112;DHT22;5609;49.466;8.468;2024-01-06T14:00:28;8.10;99.90
11112;DHT22;5609;49.466;8.468;2024-01-06T14:02:58;8.10;99.90
11112;DHT22;5609;49.466;8.468;2024-01-06T14:05:24;8.10;99.90
11112;DHT22;5609;49.466;8.468;2024-01-06T14:07:51;8.10;99.90
11112;DHT22;5609;49.466;8.468;2024-01-06T14:10:18;8.10;99.90
11112;DHT22;5609;49.466;8.468;2024-01-06T14:12:45;8.10;99.90
11112;DHT22;5609;49.466;8.468;2024-01-06T14:15:14;8.20;99.90
11112;DHT22;5609;49.466;8.468;2024-01-06T14:17:41;8.10;99.90
11112;DHT22;5609;49.466;8.468;2024-01-06T14:20:14;8.10;99.90
11112;DHT22;5609;49.466;8.468;2024-01-06T14:22:43;8.10;99.90
11112;DHT22;5609;49.466;8.468;2024-01-06T14:25:10;8.10;99.90
11112;DHT22;5609;49.466;8.468;2024-01-06T14:27:37;8.10;99.90
11112;DHT22;5609;49.466;8.468;2024-01-06T14:30:05;7.90;99.90
11112;DHT22;5609;49.466;8.468;2024-01-06T14:32:36;8.00;99.90
11112;DHT22;5609;49.466;8.468;2024-01-06T14:35:04;8.00;99.90
11112;DHT22;5609;49.466;8.468;2024-01-06T14:37:31;8.10;99.90
11112;DHT22;5609;49.466;8.468;2024-01-06T14:39:59;8.10;99.90
11112;DHT22;5609;49.466;8.468;2024-01-06T14:42:30;8.10;99.90
11112;DHT22;5609;49.466;8.468;2024-01-06T14:44:58;8.10;99.90
11112;DHT22;5609;49.466;8.468;2024-01-06T14:47:27;8.10;99.90
11112;DHT22;5609;49.466;8.468;2024-01-06T14:49:55;8.10;99.90
11112;DHT22;5609;49.466;8.468;2024-01-06T14:52:22;8.10;99.90
11112;DHT22;5609;49.466;8.468;2024-01-06T14:54:50;8.00;99.90
11112;DHT22;5609;49.466;8.468;2024-01-06T14:57:17;7.90;99.90
11112;DHT22;5609;49.466;8.468;2024-01-06T14:59:44;8.00;99.90
11112;DHT22;5609;49.466;8.468;2024-01-06T15:02:11;8.00;99.90
11112;DHT22;5609;49.466;8.468;2024-01-06T15:04:39;8.00;99.90
11112;DHT22;5609;49.466;8.468;2024-01-06T15:07:06;8.00;99.90
11112;DHT22;5609;49.466;8.468;2024-01-06T15:09:38;8.00;99.90
11112;DHT22;5609;49.466;8.468;2024-01-06T15:12:06;8.00;99.90
11112;DHT22;5609;49.466;8.468;2024-01-06T15:14:33;8.00;99.90
11112;DHT22;5609;49.466;8.468;2024-01-06T15:16:59;8.00;99.90
11112;DHT22;5609;49.466;8.468;2024-01-06T15:19:26;7.90;99.90
11112;DHT22;5609;49.466;8.468;2024-01-06T15:21:56;7.80;99.90
11112;DHT22;5609;49.466;8.468;2024-01-06T15:24:24;7.80;99.90
11112;DHT22;5609;49.466;8.468;2024-01-06T15:26:51;7.70;99.90
11112;DHT22;5609;49.466;8.468;2024-01-06T15:29:18;7.80;99.90
11112;DHT22;5609;49.466;8.468;2024-01-06T15:31:45;7.80;99.90
11112;DHT22;5609;49.466;8.468;2024-01-06T15:34:11;7.90;99.90
11112;DHT22;5609;49.466;8.468;2024-01-06T15:36:38;8.00;99.90
11112;DHT22;5609;49.466;8.468;2024-01-06T15:39:05;8.10;99.90
11112;DHT22;5609;49.466;8.468;2024-01-06T15:41:34;8.10;99.90
11112;DHT22;5609;49.466;8.468;2024-01-06T15:44:01;8.10;99.90
11112;DHT22;5609;49.466;8.468;2024-01-06T15:46:28;8.00;99.90
11112;DHT22;5609;49.466;8.468;2024-01-06T15:48:55;8.10;99.90
11112;DHT22;5609;49.466;8.468;2024-01-06T15:51:22;8.10;99.90
11112;DHT22;5609;49.466;8.468;2024-01-06T15:53:49;8.10;99.90
11112;DHT22;5609;49.466;8.468;2024-01-06T15:56:16;8.00;99.90
11112;DHT22;5609;49.466;8.468;2024-01-06T15:58:44;8.00;99.90
11112;DHT22;5609;49.466;8.468;2024-01-06T16:01:11;8.00;99.90
11112;DHT22;5609;49.466;8.468;2024-01-06T16:03:39;7.90;99.90
11112;DHT22;5609;49.466;8.468;2024-01-06T16:06:06;7.90;99.90